createdAt,value
2019-02-16T00:01:54.079Z,6.59
2019-02-16T00:04:25.231Z,6.64
2019-02-16T00:06:56.334Z,6.80
2019-02-16T00:09:27.740Z,6.91
2019-02-16T00:11:58.952Z,7.17
2019-02-16T00:14:30.003Z,7.13
2019-02-16T00:17:01.620Z,7.15
2019-02-16T00:19:32.784Z,7.18
2019-02-16T00:22:03.855Z,7.09
2019-02-16T00:24:35.150Z,7.03
2019-02-16T00:27:05.968Z,7.01
2019-02-16T00:29:37.083Z,6.93
2019-02-16T00:32:08.837Z,6.90
2019-02-16T00:34:39.891Z,6.57
2019-02-16T00:37:10.921Z,6.33
2019-02-16T00:39:41.864Z,5.94
2019-02-16T00:42:12.922Z,5.74
2019-02-16T00:44:44.342Z,5.55
2019-02-16T00:47:15.403Z,5.67
2019-02-16T00:49:46.230Z,5.33
2019-02-16T00:52:17.314Z,5.32
2019-02-16T00:54:48.195Z,5.52
2019-02-16T00:57:19.262Z,5.24
2019-02-16T00:59:50.331Z,5.24
2019-02-16T01:02:21.249Z,5.31
2019-02-16T01:04:52.068Z,5.49
2019-02-16T01:07:22.951Z,5.46
2019-02-16T01:09:54.054Z,5.37
2019-02-16T01:12:24.888Z,5.37
2019-02-16T01:14:57.250Z,5.16
2019-02-16T01:17:28.113Z,5.34
2019-02-16T01:19:59.202Z,4.98
2019-02-16T01:22:30.455Z,5.07
2019-02-16T01:25:01.846Z,4.76
2019-02-16T01:27:32.984Z,5.13
2019-02-16T01:30:05.359Z,5.34
2019-02-16T01:32:36.137Z,5.40
2019-02-16T01:35:07.617Z,5.45
2019-02-16T01:37:38.409Z,5.46
2019-02-16T01:40:10.588Z,5.43
2019-02-16T01:42:41.836Z,5.64
2019-02-16T01:45:12.721Z,5.72
2019-02-16T01:47:43.884Z,5.69
2019-02-16T01:50:15.267Z,5.84
2019-02-16T01:52:46.656Z,5.23
2019-02-16T01:55:17.543Z,4.87
2019-02-16T01:57:48.508Z,4.92
2019-02-16T02:00:19.307Z,4.59
2019-02-16T02:02:51.095Z,4.91
2019-02-16T02:05:22.099Z,4.72
2019-02-16T02:07:53.257Z,4.47
2019-02-16T02:10:24.162Z,4.27
2019-02-16T02:12:54.988Z,4.05
2019-02-16T02:15:26.096Z,3.98
2019-02-16T02:17:56.944Z,4.06
2019-02-16T02:20:27.840Z,3.90
2019-02-16T02:22:58.982Z,4.26
2019-02-16T02:25:30.065Z,4.70
2019-02-16T02:28:01.639Z,4.94
2019-02-16T02:30:33.005Z,5.20
2019-02-16T02:33:04.310Z,5.19
2019-02-16T02:35:35.927Z,4.77
2019-02-16T02:38:07.401Z,4.34
2019-02-16T02:40:38.470Z,4.15
2019-02-16T02:43:09.835Z,4.31
2019-02-16T02:45:40.947Z,3.92
2019-02-16T02:48:13.549Z,4.17
2019-02-16T02:50:44.393Z,4.47
2019-02-16T02:53:15.253Z,4.58
2019-02-16T02:55:46.182Z,4.69
2019-02-16T02:58:29.156Z,4.62
2019-02-16T03:01:00.175Z,4.93
2019-02-16T03:03:32.055Z,5.03
2019-02-16T03:06:03.285Z,4.99
2019-02-16T03:08:34.405Z,4.94
2019-02-16T03:11:05.553Z,5.05
2019-02-16T03:13:36.611Z,4.69
2019-02-16T03:16:08.390Z,4.47
2019-02-16T03:18:39.252Z,4.04
2019-02-16T03:21:10.819Z,4.40
2019-02-16T03:23:41.696Z,3.95
2019-02-16T03:26:50.223Z,3.94
2019-02-16T03:29:46.110Z,3.91
2019-02-16T03:32:43.269Z,3.82
2019-02-16T03:36:05.150Z,3.93
2019-02-16T03:38:54.788Z,3.78
2019-02-16T03:41:26.123Z,3.65
2019-02-16T03:43:57.181Z,3.72
2019-02-16T03:46:28.026Z,3.57
2019-02-16T03:48:58.846Z,3.40
2019-02-16T03:51:29.674Z,3.53
2019-02-16T03:54:00.747Z,3.59
2019-02-16T03:56:32.180Z,3.44
2019-02-16T03:59:03.047Z,3.89
2019-02-16T04:01:34.091Z,3.76
2019-02-16T04:04:04.908Z,3.55
2019-02-16T04:06:36.109Z,3.45
2019-02-16T04:09:07.027Z,3.28
2019-02-16T04:11:38.147Z,3.08
2019-02-16T04:14:08.955Z,3.07
2019-02-16T04:16:40.086Z,3.51
2019-02-16T04:19:10.913Z,3.42
2019-02-16T04:21:42.174Z,3.35
2019-02-16T04:24:12.993Z,3.46
2019-02-16T04:26:43.832Z,3.31
2019-02-16T04:29:19.223Z,3.31
2019-02-16T04:31:50.351Z,3.19
2019-02-16T04:34:21.403Z,3.41
2019-02-16T04:36:52.515Z,3.79
2019-02-16T04:39:25.842Z,3.72
2019-02-16T04:41:57.359Z,3.68
2019-02-16T04:44:28.863Z,3.55
2019-02-16T04:46:59.925Z,3.61
2019-02-16T04:49:30.734Z,3.62
2019-02-16T04:52:02.281Z,3.51
2019-02-16T04:54:33.116Z,3.38
2019-02-16T04:57:03.939Z,3.59
2019-02-16T04:59:34.773Z,3.57
2019-02-16T05:02:06.118Z,3.54
2019-02-16T05:04:37.239Z,3.52
2019-02-16T05:07:08.283Z,3.64
2019-02-16T05:09:39.449Z,3.62
2019-02-16T05:12:11.600Z,3.71
2019-02-16T05:14:42.394Z,4.13
2019-02-16T05:17:13.545Z,3.69
2019-02-16T05:19:44.342Z,3.53
2019-02-16T05:22:15.291Z,3.46
2019-02-16T05:24:46.359Z,3.56
2019-02-16T05:27:17.436Z,3.62
2019-02-16T05:29:48.261Z,3.68
2019-02-16T05:32:19.068Z,3.74
2019-02-16T05:34:49.854Z,3.99
2019-02-16T05:37:20.663Z,3.98
2019-02-16T05:39:51.896Z,3.48
2019-02-16T05:42:23.192Z,3.18
2019-02-16T05:44:54.711Z,3.20
2019-02-16T05:47:25.757Z,3.16
2019-02-16T05:49:56.563Z,3.20
2019-02-16T05:52:27.613Z,2.94
2019-02-16T05:54:58.685Z,3.25
2019-02-16T05:57:29.591Z,3.46
2019-02-16T06:00:00.620Z,4.97
2019-02-16T06:02:32.507Z,4.91
2019-02-16T06:05:03.352Z,4.86
2019-02-16T06:07:34.183Z,4.99
2019-02-16T06:10:05.237Z,5.47
2019-02-16T06:12:36.156Z,5.16
2019-02-16T06:15:07.991Z,5.59
2019-02-16T06:17:38.796Z,5.54
2019-02-16T06:20:10.085Z,6.15
2019-02-16T06:22:40.901Z,6.13
2019-02-16T06:25:12.019Z,5.68
2019-02-16T06:27:43.398Z,6.24
2019-02-16T06:30:14.373Z,6.91
2019-02-16T06:32:45.202Z,7.53
2019-02-16T06:35:29.936Z,7.35
2019-02-16T06:38:01.123Z,7.55
2019-02-16T06:40:32.316Z,6.00
2019-02-16T06:43:03.466Z,5.52
2019-02-16T06:45:34.296Z,4.94
2019-02-16T06:48:05.671Z,4.70
2019-02-16T06:50:37.415Z,4.49
2019-02-16T06:53:13.250Z,4.83
2019-02-16T06:55:48.182Z,4.93
2019-02-16T06:58:18.984Z,6.27
2019-02-16T07:00:49.804Z,7.29
2019-02-16T07:03:20.711Z,7.73
2019-02-16T07:05:51.588Z,7.72
2019-02-16T07:08:22.681Z,7.70
2019-02-16T07:10:54.493Z,8.16
2019-02-16T07:13:25.796Z,7.87
2019-02-16T07:16:15.124Z,8.00
2019-02-16T07:18:59.990Z,8.04
2019-02-16T07:21:30.841Z,7.88
2019-02-16T07:24:03.999Z,7.73
2019-02-16T07:26:35.453Z,7.77
2019-02-16T07:29:06.401Z,8.13
2019-02-16T07:31:37.629Z,8.36
2019-02-16T07:34:09.087Z,8.55
2019-02-16T07:36:40.007Z,8.45
2019-02-16T07:39:11.174Z,7.93
2019-02-16T07:41:42.107Z,8.75
2019-02-16T07:44:30.642Z,8.98
2019-02-16T07:47:20.137Z,8.48
2019-02-16T07:50:01.081Z,8.40
2019-02-16T07:52:51.894Z,8.67
2019-02-16T07:55:28.892Z,9.55
2019-02-16T07:58:06.271Z,9.49
2019-02-16T08:01:08.348Z,9.43
2019-02-16T08:03:50.394Z,9.22
2019-02-16T08:06:30.772Z,9.95
2019-02-16T08:09:09.692Z,9.86
2019-02-16T08:11:49.246Z,10.38
2019-02-16T08:14:26.420Z,10.33
2019-02-16T08:17:08.234Z,9.86
2019-02-16T08:19:58.342Z,10.24
2019-02-16T08:22:44.654Z,10.26
2019-02-16T08:25:33.216Z,10.60
2019-02-16T08:28:15.367Z,11.05
2019-02-16T08:31:07.123Z,10.45
2019-02-16T08:34:03.235Z,10.80
2019-02-16T08:37:05.277Z,10.92
2019-02-16T08:39:46.340Z,11.01
2019-02-16T08:42:26.854Z,11.00
2019-02-16T08:45:07.580Z,10.94
2019-02-16T08:47:57.438Z,11.28
2019-02-16T08:50:44.991Z,11.43
2019-02-16T08:53:26.398Z,11.86
2019-02-16T08:56:19.162Z,12.59
2019-02-16T08:59:04.652Z,12.05
2019-02-16T09:02:06.686Z,11.91
2019-02-16T09:05:02.224Z,11.78
2019-02-16T09:08:07.960Z,11.80
2019-02-16T09:10:56.362Z,12.09
2019-02-16T09:13:33.761Z,12.34
2019-02-16T09:16:12.241Z,12.44
2019-02-16T09:18:54.473Z,12.23
2019-02-16T09:21:31.797Z,12.22
2019-02-16T09:24:24.910Z,12.55
2019-02-16T09:27:19.762Z,12.22
2019-02-16T09:30:13.004Z,12.59
2019-02-16T09:32:55.618Z,12.89
2019-02-16T09:35:38.801Z,13.10
2019-02-16T09:38:25.566Z,13.11
2019-02-16T09:41:21.498Z,12.99
2019-02-16T09:44:03.678Z,13.13
2019-02-16T09:46:50.971Z,12.75
2019-02-16T09:49:42.548Z,13.04
2019-02-16T09:52:33.343Z,13.67
2019-02-16T09:55:10.298Z,13.16
2019-02-16T09:58:00.300Z,13.49
2019-02-16T10:00:53.314Z,13.80
2019-02-16T10:03:43.208Z,14.22
2019-02-16T10:06:24.694Z,14.04
2019-02-16T10:09:08.677Z,14.01
2019-02-16T10:11:43.729Z,14.01
2019-02-16T10:14:20.172Z,14.11
2019-02-16T10:17:09.866Z,14.15
2019-02-16T10:20:11.426Z,14.89
2019-02-16T10:22:51.571Z,14.71
2019-02-16T10:25:51.194Z,14.65
2019-02-16T10:28:45.031Z,14.45
2019-02-16T10:31:30.227Z,14.52
2019-02-16T10:34:19.240Z,14.45
2019-02-16T10:37:04.158Z,15.00
2019-02-16T10:39:49.003Z,14.85
2019-02-16T10:42:41.955Z,14.60
2019-02-16T10:45:37.178Z,14.51
2019-02-16T10:48:23.156Z,14.67
2019-02-16T10:50:59.486Z,14.72
2019-02-16T10:53:35.487Z,14.71
2019-02-16T10:56:18.811Z,15.06
2019-02-16T10:59:11.736Z,15.12
2019-02-16T11:02:17.085Z,15.28
2019-02-16T11:05:06.926Z,15.50
2019-02-16T11:07:58.667Z,15.68
2019-02-16T11:10:49.005Z,15.37
2019-02-16T11:13:40.641Z,15.14
2019-02-16T11:16:44.044Z,15.04
2019-02-16T11:19:35.191Z,15.40
2019-02-16T11:22:17.225Z,15.40
2019-02-16T11:25:17.967Z,15.39
2019-02-16T11:28:04.596Z,15.67
2019-02-16T11:30:40.234Z,15.46
2019-02-16T11:33:18.025Z,15.78
2019-02-16T11:36:03.746Z,15.47
2019-02-16T11:38:46.682Z,15.68
2019-02-16T11:41:28.730Z,15.43
2019-02-16T11:44:06.528Z,15.57
2019-02-16T11:47:10.135Z,15.78
2019-02-16T11:49:56.020Z,16.09
2019-02-16T11:52:50.761Z,16.03
2019-02-16T11:55:30.868Z,16.42
2019-02-16T11:58:31.640Z,16.61
2019-02-16T12:01:15.038Z,15.98
2019-02-16T12:04:09.599Z,15.86
2019-02-16T12:06:57.179Z,15.73
2019-02-16T12:09:52.684Z,16.12
2019-02-16T12:12:41.977Z,15.94
2019-02-16T12:15:33.669Z,15.80
2019-02-16T12:18:34.416Z,15.98
2019-02-16T12:21:21.724Z,16.28
2019-02-16T12:23:59.414Z,15.84
2019-02-16T12:26:47.160Z,16.01
2019-02-16T12:29:43.930Z,15.74
2019-02-16T12:32:32.963Z,16.12
2019-02-16T12:35:20.803Z,16.68
2019-02-16T12:38:05.582Z,16.37
2019-02-16T12:40:55.196Z,16.40
2019-02-16T12:43:43.195Z,16.84
2019-02-16T12:46:21.737Z,16.40
2019-02-16T12:49:08.612Z,16.32
2019-02-16T12:51:50.289Z,16.17
2019-02-16T12:54:38.125Z,16.31
2019-02-16T12:57:13.616Z,16.14
2019-02-16T13:00:01.611Z,16.03
2019-02-16T13:02:49.046Z,16.75
2019-02-16T13:05:40.395Z,16.72
2019-02-16T13:08:21.787Z,16.57
2019-02-16T13:11:09.766Z,16.92
2019-02-16T13:13:47.458Z,17.06
2019-02-16T13:16:36.192Z,17.09
2019-02-16T13:19:31.238Z,17.02
2019-02-16T13:22:11.867Z,16.80
2019-02-16T13:24:59.155Z,16.90
2019-02-16T13:27:46.539Z,16.96
2019-02-16T13:30:34.270Z,17.13
2019-02-16T13:33:21.467Z,16.82
2019-02-16T13:35:58.454Z,16.74
2019-02-16T13:38:35.200Z,16.96
2019-02-16T13:41:20.572Z,16.76
2019-02-16T13:44:18.293Z,16.19
2019-02-16T13:47:03.221Z,16.00
2019-02-16T13:49:54.707Z,16.21
2019-02-16T13:52:31.616Z,16.46
2019-02-16T13:55:19.000Z,16.31
2019-02-16T13:58:10.795Z,16.48
2019-02-16T14:01:06.368Z,16.00
2019-02-16T14:04:04.296Z,16.21
2019-02-16T14:06:40.416Z,16.00
2019-02-16T14:09:25.851Z,16.07
2019-02-16T14:12:17.487Z,15.79
2019-02-16T14:14:54.403Z,16.07
2019-02-16T14:17:33.414Z,16.12
2019-02-16T14:20:03.166Z,15.76
2019-02-16T14:22:38.314Z,15.90
2019-02-16T14:25:12.735Z,15.82
2019-02-16T14:27:42.381Z,16.11
2019-02-16T14:30:12.365Z,16.11
2019-02-16T14:32:42.406Z,15.91
2019-02-16T14:35:12.299Z,16.04
2019-02-16T14:37:51.061Z,16.00
2019-02-16T14:40:21.097Z,15.95
2019-02-16T14:42:51.196Z,15.86
2019-02-16T14:45:20.999Z,15.99
2019-02-16T14:47:50.605Z,15.66
2019-02-16T14:50:21.135Z,15.89
2019-02-16T14:52:50.755Z,16.02
2019-02-16T14:55:20.773Z,15.95
2019-02-16T14:57:51.054Z,15.92
2019-02-16T15:00:20.990Z,15.88
2019-02-16T15:02:50.983Z,15.73
2019-02-16T15:05:20.646Z,15.61
2019-02-16T15:07:50.880Z,15.69
2019-02-16T15:10:21.754Z,15.68
2019-02-16T15:12:51.808Z,15.71
2019-02-16T15:15:21.425Z,15.57
2019-02-16T15:17:51.334Z,15.65
2019-02-16T15:20:20.966Z,15.69
2019-02-16T15:22:50.624Z,15.62
2019-02-16T15:25:20.478Z,15.44
2019-02-16T15:27:51.438Z,15.30
2019-02-16T15:30:21.534Z,15.33
2019-02-16T15:32:51.266Z,15.30
2019-02-16T15:35:21.375Z,15.18
2019-02-16T15:37:51.347Z,15.16
2019-02-16T15:40:21.551Z,15.15
2019-02-16T15:42:51.249Z,15.15
2019-02-16T15:45:21.380Z,15.08
2019-02-16T15:47:52.049Z,14.91
2019-02-16T15:50:22.193Z,14.85
2019-02-16T15:52:52.484Z,14.76
2019-02-16T15:55:22.885Z,14.70
2019-02-16T15:57:52.601Z,14.68
2019-02-16T16:00:27.068Z,14.66
2019-02-16T16:02:56.752Z,14.68
2019-02-16T16:05:26.423Z,14.54
2019-02-16T16:08:15.389Z,14.37
2019-02-16T16:11:00.006Z,14.41
2019-02-16T16:13:41.521Z,14.32
2019-02-16T16:16:21.648Z,14.28
2019-02-16T16:19:08.261Z,14.20
2019-02-16T16:21:46.037Z,14.11
2019-02-16T16:24:36.906Z,14.08
2019-02-16T16:27:25.577Z,13.93
2019-02-16T16:30:03.913Z,13.86
2019-02-16T16:32:46.106Z,13.80
2019-02-16T16:35:22.962Z,13.75
2019-02-16T16:38:02.353Z,13.74
2019-02-16T16:40:52.691Z,13.69
2019-02-16T16:43:36.085Z,13.64
2019-02-16T16:46:22.472Z,13.60
2019-02-16T16:49:16.511Z,13.56
2019-02-16T16:52:17.637Z,13.49
2019-02-16T16:55:01.020Z,13.38
2019-02-16T16:57:52.469Z,13.33
2019-02-16T17:00:40.925Z,13.32
2019-02-16T17:03:32.554Z,13.25
2019-02-16T17:06:08.241Z,13.14
2019-02-16T17:09:03.018Z,13.03
2019-02-16T17:11:55.131Z,13.07
2019-02-16T17:14:52.999Z,12.96
2019-02-16T17:17:38.391Z,12.95
2019-02-16T17:20:27.317Z,12.77
2019-02-16T17:23:14.089Z,12.72
2019-02-16T17:26:01.447Z,12.67
2019-02-16T17:28:50.196Z,12.73
2019-02-16T17:31:29.203Z,12.54
2019-02-16T17:34:15.220Z,12.57
2019-02-16T17:37:03.871Z,12.57
2019-02-16T17:39:58.651Z,12.50
2019-02-16T17:42:35.795Z,12.46
2019-02-16T17:45:23.064Z,12.57
2019-02-16T17:48:14.537Z,12.58
2019-02-16T17:51:09.340Z,12.54
2019-02-16T17:53:54.300Z,12.46
2019-02-16T17:56:33.066Z,12.36
2019-02-16T17:59:10.612Z,12.37
2019-02-16T18:01:58.126Z,12.33
2019-02-16T18:04:41.096Z,12.20
2019-02-16T18:07:23.781Z,12.16
2019-02-16T18:10:01.847Z,12.13
2019-02-16T18:12:48.847Z,12.09
2019-02-16T18:15:36.550Z,12.06
2019-02-16T18:18:26.415Z,12.05
2019-02-16T18:21:02.508Z,12.10
2019-02-16T18:23:39.900Z,12.03
2019-02-16T18:26:28.451Z,11.89
2019-02-16T18:29:15.894Z,11.72
2019-02-16T18:32:15.717Z,11.81
2019-02-16T18:35:05.270Z,11.86
2019-02-16T18:38:00.507Z,11.87
2019-02-16T18:41:08.687Z,11.85
2019-02-16T18:43:53.424Z,11.82
2019-02-16T18:46:41.692Z,11.69
2019-02-16T18:49:34.177Z,11.64
2019-02-16T18:52:16.482Z,11.68
2019-02-16T18:55:10.314Z,11.63
2019-02-16T18:57:39.944Z,11.59
2019-02-16T19:00:17.985Z,11.45
2019-02-16T19:03:06.827Z,11.46
2019-02-16T19:05:47.049Z,11.33
2019-02-16T19:08:41.987Z,11.44
2019-02-16T19:11:28.674Z,11.34
2019-02-16T19:14:26.502Z,11.35
2019-02-16T19:17:13.367Z,11.34
2019-02-16T19:20:10.627Z,11.18
2019-02-16T19:22:58.997Z,11.18
2019-02-16T19:25:59.913Z,11.19
2019-02-16T19:28:48.574Z,11.15
2019-02-16T19:31:27.591Z,11.10
2019-02-16T19:34:35.022Z,10.95
2019-02-16T19:37:29.744Z,11.02
2019-02-16T19:40:09.701Z,10.92
2019-02-16T19:43:03.223Z,10.89
2019-02-16T19:45:51.111Z,10.99
2019-02-16T19:48:31.289Z,10.87
2019-02-16T19:51:08.237Z,10.96
2019-02-16T19:53:45.331Z,10.80
2019-02-16T19:56:22.323Z,10.81
2019-02-16T19:59:02.621Z,10.67
2019-02-16T20:02:09.702Z,10.77
2019-02-16T20:04:56.900Z,10.57
2019-02-16T20:07:42.846Z,10.62
2019-02-16T20:10:26.534Z,10.55
2019-02-16T20:13:16.270Z,10.51
2019-02-16T20:15:50.557Z,10.46
2019-02-16T20:18:39.898Z,10.46
2019-02-16T20:21:27.390Z,10.45
2019-02-16T20:24:23.097Z,10.56
2019-02-16T20:27:00.389Z,10.44
2019-02-16T20:29:38.499Z,10.30
2019-02-16T20:32:40.431Z,10.28
2019-02-16T20:35:24.208Z,10.40
2019-02-16T20:38:15.938Z,10.30
2019-02-16T20:40:59.628Z,10.01
2019-02-16T20:43:48.590Z,10.18
2019-02-16T20:46:25.272Z,10.09
2019-02-16T20:49:19.762Z,9.94
2019-02-16T20:51:56.575Z,9.97
2019-02-16T20:54:52.207Z,9.76
2019-02-16T20:57:48.096Z,9.78
2019-02-16T21:00:26.294Z,9.74
2019-02-16T21:03:14.084Z,9.66
2019-02-16T21:05:59.422Z,9.71
2019-02-16T21:08:37.763Z,9.75
2019-02-16T21:11:25.058Z,9.72
2019-02-16T21:14:07.309Z,9.61
2019-02-16T21:16:57.812Z,9.60
2019-02-16T21:19:45.455Z,9.54
2019-02-16T21:22:39.920Z,9.46
2019-02-16T21:25:27.676Z,9.49
2019-02-16T21:28:32.256Z,9.42
2019-02-16T21:31:19.696Z,9.34
2019-02-16T21:34:01.589Z,9.35
2019-02-16T21:36:39.405Z,9.31
2019-02-16T21:39:28.451Z,9.27
2019-02-16T21:42:10.682Z,9.37
2019-02-16T21:45:04.858Z,9.48
2019-02-16T21:47:42.668Z,9.22
2019-02-16T21:50:30.164Z,9.26
2019-02-16T21:53:21.453Z,9.26
2019-02-16T21:56:07.941Z,9.26
2019-02-16T21:59:03.475Z,9.25
2019-02-16T22:01:52.317Z,9.14
2019-02-16T22:04:50.216Z,9.05
2019-02-16T22:07:42.206Z,9.14
2019-02-16T22:10:36.759Z,9.22
2019-02-16T22:13:05.546Z,9.13
2019-02-16T22:15:35.641Z,9.12
2019-02-16T22:18:05.457Z,9.18
2019-02-16T22:20:35.340Z,9.06
2019-02-16T22:23:05.365Z,9.00
2019-02-16T22:25:35.267Z,8.93
2019-02-16T22:28:04.877Z,8.73
2019-02-16T22:30:34.574Z,8.92
2019-02-16T22:33:04.626Z,8.76
2019-02-16T22:35:35.148Z,8.71
2019-02-16T22:38:05.376Z,8.53
2019-02-16T22:40:35.418Z,8.61
2019-02-16T22:43:05.080Z,8.36
2019-02-16T22:45:34.857Z,8.44
2019-02-16T22:48:04.488Z,8.43
2019-02-16T22:50:34.282Z,8.34
2019-02-16T22:53:03.920Z,8.37
2019-02-16T22:55:33.601Z,8.15
2019-02-16T22:58:05.652Z,8.26
2019-02-16T23:00:37.411Z,8.25
2019-02-16T23:03:08.744Z,8.40
2019-02-16T23:05:38.642Z,8.36
2019-02-16T23:08:08.645Z,8.01
2019-02-16T23:10:38.271Z,8.31
2019-02-16T23:13:08.547Z,8.32
2019-02-16T23:15:38.181Z,8.20
2019-02-16T23:18:07.900Z,8.26
2019-02-16T23:20:37.576Z,8.36
2019-02-16T23:23:07.263Z,8.24
2019-02-16T23:25:36.959Z,8.32
2019-02-16T23:28:06.669Z,8.26
2019-02-16T23:30:37.135Z,8.27
2019-02-16T23:33:07.043Z,8.27
2019-02-16T23:35:36.798Z,8.28
2019-02-16T23:38:06.558Z,8.24
2019-02-16T23:40:36.161Z,8.21
2019-02-16T23:43:05.807Z,8.22
2019-02-16T23:45:35.661Z,8.21
2019-02-16T23:48:05.522Z,8.35
2019-02-16T23:50:35.243Z,8.33
2019-02-16T23:53:05.054Z,8.25
2019-02-16T23:55:34.955Z,8.15
2019-02-16T23:58:04.557Z,7.91
